sensor_id;sensor_type;location;lat;lon;timestamp;P1;durP1;ratioP1;P2;durP2;ratioP2
30850;SDS011;17567;48.382;9.102;2022-08-18T00:04:57;14.43;;;5.70;;
30850;SDS011;17567;48.382;9.102;2022-08-18T00:09:59;5.43;;;5.03;;
30850;SDS011;17567;48.382;9.102;2022-08-18T00:15:01;5.47;;;4.97;;
30850;SDS011;17567;48.382;9.102;2022-08-18T00:20:06;6.13;;;5.53;;
30850;SDS011;17567;48.382;9.102;2022-08-18T00:25:10;5.73;;;5.23;;
30850;SDS011;17567;48.382;9.102;2022-08-18T00:30:14;5.93;;;5.37;;
30850;SDS011;17567;48.382;9.102;2022-08-18T00:35:24;4.87;;;4.47;;
30850;SDS011;17567;48.382;9.102;2022-08-18T00:40:38;5.10;;;4.70;;
30850;SDS011;17567;48.382;9.102;2022-08-18T00:45:41;5.90;;;5.40;;
30850;SDS011;17567;48.382;9.102;2022-08-18T00:50:47;5.80;;;5.20;;
30850;SDS011;17567;48.382;9.102;2022-08-18T00:56:02;5.67;;;5.07;;
30850;SDS011;17567;48.382;9.102;2022-08-18T01:01:07;5.13;;;4.63;;
30850;SDS011;17567;48.382;9.102;2022-08-18T01:11:16;5.87;;;4.90;;
30850;SDS011;17567;48.382;9.102;2022-08-18T01:16:17;5.57;;;5.07;;
30850;SDS011;17567;48.382;9.102;2022-08-18T01:21:38;7.47;;;5.57;;
30850;SDS011;17567;48.382;9.102;2022-08-18T01:26:49;8.13;;;5.37;;
30850;SDS011;17567;48.382;9.102;2022-08-18T01:31:51;5.77;;;4.60;;
30850;SDS011;17567;48.382;9.102;2022-08-18T01:36:56;5.20;;;4.70;;
30850;SDS011;17567;48.382;9.102;2022-08-18T01:41:57;4.53;;;4.23;;
30850;SDS011;17567;48.382;9.102;2022-08-18T01:46:58;5.90;;;5.00;;
30850;SDS011;17567;48.382;9.102;2022-08-18T01:51:59;5.93;;;5.40;;
30850;SDS011;17567;48.382;9.102;2022-08-18T01:57:00;5.60;;;5.20;;
30850;SDS011;17567;48.382;9.102;2022-08-18T02:02:01;7.20;;;5.40;;
30850;SDS011;17567;48.382;9.102;2022-08-18T02:07:03;5.17;;;4.77;;
30850;SDS011;17567;48.382;9.102;2022-08-18T02:12:09;5.27;;;4.87;;
30850;SDS011;17567;48.382;9.102;2022-08-18T02:17:11;6.83;;;5.73;;
30850;SDS011;17567;48.382;9.102;2022-08-18T02:22:14;7.43;;;6.43;;
30850;SDS011;17567;48.382;9.102;2022-08-18T02:27:17;7.03;;;6.43;;
30850;SDS011;17567;48.382;9.102;2022-08-18T02:32:18;9.03;;;7.63;;
30850;SDS011;17567;48.382;9.102;2022-08-18T02:37:19;6.90;;;6.40;;
30850;SDS011;17567;48.382;9.102;2022-08-18T02:42:20;6.20;;;5.80;;
30850;SDS011;17567;48.382;9.102;2022-08-18T02:47:21;6.63;;;6.03;;
30850;SDS011;17567;48.382;9.102;2022-08-18T02:52:22;6.40;;;5.90;;
30850;SDS011;17567;48.382;9.102;2022-08-18T02:57:29;6.30;;;5.63;;
30850;SDS011;17567;48.382;9.102;2022-08-18T03:02:30;6.60;;;6.00;;
30850;SDS011;17567;48.382;9.102;2022-08-18T03:07:31;8.20;;;6.37;;
30850;SDS011;17567;48.382;9.102;2022-08-18T03:12:32;7.57;;;6.87;;
30850;SDS011;17567;48.382;9.102;2022-08-18T03:17:34;7.37;;;6.70;;
30850;SDS011;17567;48.382;9.102;2022-08-18T03:22:36;7.60;;;6.90;;
30850;SDS011;17567;48.382;9.102;2022-08-18T03:27:37;6.83;;;6.20;;
30850;SDS011;17567;48.382;9.102;2022-08-18T03:32:38;7.03;;;6.43;;
30850;SDS011;17567;48.382;9.102;2022-08-18T03:37:39;7.70;;;7.10;;
30850;SDS011;17567;48.382;9.102;2022-08-18T03:42:40;6.83;;;6.23;;
30850;SDS011;17567;48.382;9.102;2022-08-18T03:47:41;7.40;;;6.80;;
30850;SDS011;17567;48.382;9.102;2022-08-18T03:52:45;7.10;;;6.40;;
30850;SDS011;17567;48.382;9.102;2022-08-18T03:57:48;7.80;;;6.20;;
30850;SDS011;17567;48.382;9.102;2022-08-18T04:02:51;7.77;;;6.43;;
30850;SDS011;17567;48.382;9.102;2022-08-18T04:07:52;8.57;;;7.70;;
30850;SDS011;17567;48.382;9.102;2022-08-18T04:12:53;8.60;;;7.57;;
30850;SDS011;17567;48.382;9.102;2022-08-18T04:17:57;11.33;;;7.47;;
30850;SDS011;17567;48.382;9.102;2022-08-18T04:22:59;7.83;;;7.13;;
30850;SDS011;17567;48.382;9.102;2022-08-18T04:28:00;8.30;;;7.53;;
30850;SDS011;17567;48.382;9.102;2022-08-18T04:33:01;8.27;;;7.53;;
30850;SDS011;17567;48.382;9.102;2022-08-18T04:38:01;8.97;;;8.17;;
30850;SDS011;17567;48.382;9.102;2022-08-18T04:43:02;9.50;;;6.63;;
30850;SDS011;17567;48.382;9.102;2022-08-18T04:48:03;8.63;;;7.83;;
30850;SDS011;17567;48.382;9.102;2022-08-18T04:53:04;7.70;;;7.00;;
30850;SDS011;17567;48.382;9.102;2022-08-18T04:58:24;11.13;;;10.20;;
30850;SDS011;17567;48.382;9.102;2022-08-18T05:03:25;8.07;;;7.47;;
30850;SDS011;17567;48.382;9.102;2022-08-18T05:08:26;7.43;;;6.60;;
30850;SDS011;17567;48.382;9.102;2022-08-18T05:13:27;7.87;;;7.27;;
30850;SDS011;17567;48.382;9.102;2022-08-18T05:18:29;9.07;;;8.10;;
30850;SDS011;17567;48.382;9.102;2022-08-18T05:23:30;7.30;;;6.70;;
30850;SDS011;17567;48.382;9.102;2022-08-18T05:28:31;8.60;;;6.50;;
30850;SDS011;17567;48.382;9.102;2022-08-18T05:33:36;7.07;;;6.47;;
30850;SDS011;17567;48.382;9.102;2022-08-18T05:44:11;7.80;;;6.13;;
30850;SDS011;17567;48.382;9.102;2022-08-18T05:49:14;8.10;;;7.07;;
30850;SDS011;17567;48.382;9.102;2022-08-18T05:54:15;13.53;;;9.10;;
30850;SDS011;17567;48.382;9.102;2022-08-18T05:59:38;7.70;;;6.87;;
30850;SDS011;17567;48.382;9.102;2022-08-18T06:04:52;7.60;;;6.80;;
30850;SDS011;17567;48.382;9.102;2022-08-18T06:09:55;11.80;;;9.17;;
30850;SDS011;17567;48.382;9.102;2022-08-18T06:15:01;9.53;;;7.33;;
30850;SDS011;17567;48.382;9.102;2022-08-18T06:20:20;15.73;;;8.17;;
30850;SDS011;17567;48.382;9.102;2022-08-18T06:30:48;12.20;;;9.23;;
30850;SDS011;17567;48.382;9.102;2022-08-18T06:41:32;9.53;;;8.40;;
30850;SDS011;17567;48.382;9.102;2022-08-18T06:46:46;8.63;;;7.73;;
30850;SDS011;17567;48.382;9.102;2022-08-18T06:51:52;8.13;;;7.33;;
30850;SDS011;17567;48.382;9.102;2022-08-18T06:56:53;11.13;;;9.70;;
30850;SDS011;17567;48.382;9.102;2022-08-18T07:07:29;9.03;;;8.13;;
30850;SDS011;17567;48.382;9.102;2022-08-18T07:12:32;9.43;;;8.53;;
30850;SDS011;17567;48.382;9.102;2022-08-18T07:17:34;9.97;;;7.30;;
30850;SDS011;17567;48.382;9.102;2022-08-18T07:22:56;10.30;;;8.60;;
30850;SDS011;17567;48.382;9.102;2022-08-18T07:28:00;7.73;;;7.07;;
30850;SDS011;17567;48.382;9.102;2022-08-18T07:38:22;10.07;;;8.33;;
30850;SDS011;17567;48.382;9.102;2022-08-18T07:48:50;9.93;;;9.03;;
30850;SDS011;17567;48.382;9.102;2022-08-18T07:53:55;12.33;;;10.10;;
30850;SDS011;17567;48.382;9.102;2022-08-18T07:59:28;10.93;;;9.70;;
30850;SDS011;17567;48.382;9.102;2022-08-18T08:04:37;11.63;;;10.43;;
30850;SDS011;17567;48.382;9.102;2022-08-18T08:09:57;12.80;;;9.87;;
30850;SDS011;17567;48.382;9.102;2022-08-18T08:15:15;10.97;;;9.10;;
30850;SDS011;17567;48.382;9.102;2022-08-18T08:20:30;11.27;;;10.07;;
30850;SDS011;17567;48.382;9.102;2022-08-18T08:42:58;12.47;;;11.17;;
30850;SDS011;17567;48.382;9.102;2022-08-18T08:48:12;10.97;;;9.87;;
30850;SDS011;17567;48.382;9.102;2022-08-18T08:59:48;13.33;;;7.80;;
30850;SDS011;17567;48.382;9.102;2022-08-18T09:05:09;9.00;;;7.00;;
30850;SDS011;17567;48.382;9.102;2022-08-18T09:15:36;7.70;;;7.00;;
30850;SDS011;17567;48.382;9.102;2022-08-18T09:25:51;7.20;;;6.60;;
30850;SDS011;17567;48.382;9.102;2022-08-18T09:31:13;7.10;;;6.40;;
30850;SDS011;17567;48.382;9.102;2022-08-18T09:41:24;7.17;;;6.30;;
30850;SDS011;17567;48.382;9.102;2022-08-18T09:51:42;6.80;;;6.20;;
30850;SDS011;17567;48.382;9.102;2022-08-18T10:01:53;6.15;;;5.65;;
30850;SDS011;17567;48.382;9.102;2022-08-18T10:06:54;7.72;;;5.80;;
30850;SDS011;17567;48.382;9.102;2022-08-18T10:28:52;6.03;;;5.53;;
30850;SDS011;17567;48.382;9.102;2022-08-18T10:39:05;5.95;;;5.45;;
30850;SDS011;17567;48.382;9.102;2022-08-18T10:44:12;5.35;;;4.85;;
30850;SDS011;17567;48.382;9.102;2022-08-18T10:49:20;6.63;;;5.68;;
30850;SDS011;17567;48.382;9.102;2022-08-18T10:54:39;8.35;;;5.38;;
30850;SDS011;17567;48.382;9.102;2022-08-18T11:05:13;4.90;;;4.50;;
30850;SDS011;17567;48.382;9.102;2022-08-18T11:10:20;5.57;;;5.10;;
30850;SDS011;17567;48.382;9.102;2022-08-18T11:20:41;5.28;;;4.88;;
30850;SDS011;17567;48.382;9.102;2022-08-18T11:25:43;5.60;;;5.10;;
30850;SDS011;17567;48.382;9.102;2022-08-18T11:30:44;5.75;;;5.25;;
30850;SDS011;17567;48.382;9.102;2022-08-18T11:35:51;6.40;;;5.90;;
30850;SDS011;17567;48.382;9.102;2022-08-18T11:41:10;5.63;;;5.10;;
30850;SDS011;17567;48.382;9.102;2022-08-18T11:51:25;6.25;;;5.65;;
30850;SDS011;17567;48.382;9.102;2022-08-18T11:56:33;6.95;;;6.30;;
30850;SDS011;17567;48.382;9.102;2022-08-18T12:12:02;6.65;;;6.07;;
30850;SDS011;17567;48.382;9.102;2022-08-18T12:17:24;7.70;;;7.00;;
30850;SDS011;17567;48.382;9.102;2022-08-18T12:22:27;7.65;;;6.88;;
30850;SDS011;17567;48.382;9.102;2022-08-18T12:27:33;7.82;;;7.05;;
30850;SDS011;17567;48.382;9.102;2022-08-18T12:32:35;8.68;;;7.82;;
30850;SDS011;17567;48.382;9.102;2022-08-18T12:37:39;7.68;;;6.97;;
30850;SDS011;17567;48.382;9.102;2022-08-18T12:42:42;6.97;;;6.35;;
30850;SDS011;17567;48.382;9.102;2022-08-18T12:47:45;7.40;;;6.65;;
30850;SDS011;17567;48.382;9.102;2022-08-18T12:52:47;6.10;;;5.50;;
30850;SDS011;17567;48.382;9.102;2022-08-18T12:57:48;10.75;;;6.18;;
30850;SDS011;17567;48.382;9.102;2022-08-18T13:02:49;8.52;;;7.50;;
30850;SDS011;17567;48.382;9.102;2022-08-18T13:07:51;11.88;;;7.10;;
30850;SDS011;17567;48.382;9.102;2022-08-18T13:12:52;9.20;;;8.40;;
30850;SDS011;17567;48.382;9.102;2022-08-18T13:17:53;7.07;;;6.47;;
30850;SDS011;17567;48.382;9.102;2022-08-18T13:22:55;7.80;;;7.20;;
30850;SDS011;17567;48.382;9.102;2022-08-18T13:27:55;8.15;;;7.38;;
30850;SDS011;17567;48.382;9.102;2022-08-18T13:32:57;8.90;;;8.13;;
30850;SDS011;17567;48.382;9.102;2022-08-18T13:37:59;8.40;;;7.60;;
30850;SDS011;17567;48.382;9.102;2022-08-18T13:42:59;8.60;;;7.53;;
30850;SDS011;17567;48.382;9.102;2022-08-18T13:48:01;7.68;;;7.10;;
30850;SDS011;17567;48.382;9.102;2022-08-18T13:53:01;8.63;;;7.82;;
30850;SDS011;17567;48.382;9.102;2022-08-18T13:58:02;9.57;;;8.75;;
30850;SDS011;17567;48.382;9.102;2022-08-18T14:03:04;7.53;;;6.82;;
30850;SDS011;17567;48.382;9.102;2022-08-18T14:08:05;13.40;;;7.22;;
30850;SDS011;17567;48.382;9.102;2022-08-18T14:13:06;9.55;;;8.00;;
30850;SDS011;17567;48.382;9.102;2022-08-18T14:18:07;8.25;;;7.65;;
30850;SDS011;17567;48.382;9.102;2022-08-18T14:23:10;9.02;;;8.25;;
30850;SDS011;17567;48.382;9.102;2022-08-18T14:28:30;7.90;;;7.30;;
30850;SDS011;17567;48.382;9.102;2022-08-18T14:33:32;12.52;;;9.10;;
30850;SDS011;17567;48.382;9.102;2022-08-18T14:38:34;10.93;;;8.60;;
30850;SDS011;17567;48.382;9.102;2022-08-18T14:43:35;9.93;;;8.20;;
30850;SDS011;17567;48.382;9.102;2022-08-18T14:48:39;9.30;;;8.40;;
30850;SDS011;17567;48.382;9.102;2022-08-18T14:53:41;9.20;;;8.30;;
30850;SDS011;17567;48.382;9.102;2022-08-18T14:58:43;9.98;;;9.10;;
30850;SDS011;17567;48.382;9.102;2022-08-18T15:03:44;9.55;;;8.55;;
30850;SDS011;17567;48.382;9.102;2022-08-18T15:08:45;8.88;;;8.18;;
30850;SDS011;17567;48.382;9.102;2022-08-18T15:13:45;10.70;;;9.00;;
30850;SDS011;17567;48.382;9.102;2022-08-18T15:18:46;8.95;;;8.13;;
30850;SDS011;17567;48.382;9.102;2022-08-18T15:23:47;9.50;;;8.60;;
30850;SDS011;17567;48.382;9.102;2022-08-18T15:29:06;9.73;;;8.80;;
30850;SDS011;17567;48.382;9.102;2022-08-18T15:34:09;8.40;;;7.80;;
30850;SDS011;17567;48.382;9.102;2022-08-18T15:39:13;9.40;;;8.13;;
30850;SDS011;17567;48.382;9.102;2022-08-18T15:44:18;9.30;;;8.43;;
30850;SDS011;17567;48.382;9.102;2022-08-18T15:49:21;8.05;;;7.35;;
30850;SDS011;17567;48.382;9.102;2022-08-18T15:54:23;8.73;;;7.93;;
30850;SDS011;17567;48.382;9.102;2022-08-18T15:59:26;8.80;;;7.82;;
30850;SDS011;17567;48.382;9.102;2022-08-18T16:04:30;8.52;;;7.82;;
30850;SDS011;17567;48.382;9.102;2022-08-18T16:09:31;9.75;;;8.75;;
30850;SDS011;17567;48.382;9.102;2022-08-18T16:14:32;7.72;;;7.03;;
30850;SDS011;17567;48.382;9.102;2022-08-18T16:19:38;7.93;;;7.32;;
30850;SDS011;17567;48.382;9.102;2022-08-18T16:24:39;10.18;;;8.68;;
30850;SDS011;17567;48.382;9.102;2022-08-18T16:29:41;9.85;;;8.70;;
30850;SDS011;17567;48.382;9.102;2022-08-18T16:34:44;9.43;;;8.45;;
30850;SDS011;17567;48.382;9.102;2022-08-18T16:39:45;8.57;;;7.78;;
30850;SDS011;17567;48.382;9.102;2022-08-18T16:44:46;9.40;;;8.60;;
30850;SDS011;17567;48.382;9.102;2022-08-18T16:49:47;8.88;;;8.07;;
30850;SDS011;17567;48.382;9.102;2022-08-18T16:54:50;9.25;;;7.40;;
30850;SDS011;17567;48.382;9.102;2022-08-18T16:59:50;9.13;;;8.32;;
30850;SDS011;17567;48.382;9.102;2022-08-18T17:05:10;9.02;;;7.43;;
30850;SDS011;17567;48.382;9.102;2022-08-18T17:10:11;7.82;;;7.00;;
30850;SDS011;17567;48.382;9.102;2022-08-18T17:15:12;8.13;;;7.28;;
30850;SDS011;17567;48.382;9.102;2022-08-18T17:20:14;8.60;;;7.68;;
30850;SDS011;17567;48.382;9.102;2022-08-18T17:25:15;11.88;;;7.55;;
30850;SDS011;17567;48.382;9.102;2022-08-18T17:30:21;7.47;;;6.82;;
30850;SDS011;17567;48.382;9.102;2022-08-18T17:35:39;8.88;;;8.15;;
30850;SDS011;17567;48.382;9.102;2022-08-18T17:40:43;10.63;;;7.68;;
30850;SDS011;17567;48.382;9.102;2022-08-18T17:46:03;12.98;;;8.00;;
30850;SDS011;17567;48.382;9.102;2022-08-18T17:51:13;12.00;;;9.45;;
30850;SDS011;17567;48.382;9.102;2022-08-18T17:56:39;9.73;;;8.20;;
30850;SDS011;17567;48.382;9.102;2022-08-18T18:01:44;15.85;;;10.20;;
30850;SDS011;17567;48.382;9.102;2022-08-18T18:06:48;24.80;;;12.48;;
30850;SDS011;17567;48.382;9.102;2022-08-18T18:11:51;15.60;;;11.40;;
30850;SDS011;17567;48.382;9.102;2022-08-18T18:22:07;11.65;;;7.80;;
30850;SDS011;17567;48.382;9.102;2022-08-18T18:27:29;11.82;;;8.68;;
30850;SDS011;17567;48.382;9.102;2022-08-18T18:32:32;12.88;;;10.05;;
30850;SDS011;17567;48.382;9.102;2022-08-18T18:37:39;10.38;;;9.18;;
30850;SDS011;17567;48.382;9.102;2022-08-18T18:42:48;13.60;;;9.68;;
30850;SDS011;17567;48.382;9.102;2022-08-18T18:53:10;12.30;;;9.80;;
30850;SDS011;17567;48.382;9.102;2022-08-18T18:58:22;11.30;;;9.50;;
30850;SDS011;17567;48.382;9.102;2022-08-18T19:03:32;9.57;;;8.68;;
30850;SDS011;17567;48.382;9.102;2022-08-18T19:14:13;9.97;;;9.03;;
30850;SDS011;17567;48.382;9.102;2022-08-18T19:24:30;10.97;;;9.90;;
30850;SDS011;17567;48.382;9.102;2022-08-18T19:29:39;14.20;;;11.40;;
30850;SDS011;17567;48.382;9.102;2022-08-18T19:34:44;15.07;;;12.03;;
30850;SDS011;17567;48.382;9.102;2022-08-18T19:40:02;14.20;;;12.77;;
30850;SDS011;17567;48.382;9.102;2022-08-18T19:50:55;15.70;;;14.20;;
30850;SDS011;17567;48.382;9.102;2022-08-18T20:01:21;19.07;;;17.13;;
30850;SDS011;17567;48.382;9.102;2022-08-18T20:32:34;18.90;;;16.90;;
30850;SDS011;17567;48.382;9.102;2022-08-18T20:37:35;22.93;;;20.57;;
30850;SDS011;17567;48.382;9.102;2022-08-18T20:42:43;26.00;;;22.67;;
30850;SDS011;17567;48.382;9.102;2022-08-18T20:47:49;26.27;;;21.47;;
30850;SDS011;17567;48.382;9.102;2022-08-18T20:58:43;27.20;;;24.13;;
30850;SDS011;17567;48.382;9.102;2022-08-18T21:03:58;18.70;;;16.70;;
30850;SDS011;17567;48.382;9.102;2022-08-18T21:08:59;21.87;;;19.50;;
30850;SDS011;17567;48.382;9.102;2022-08-18T21:14:00;22.63;;;20.33;;
30850;SDS011;17567;48.382;9.102;2022-08-18T21:19:07;20.40;;;17.93;;
30850;SDS011;17567;48.382;9.102;2022-08-18T21:24:20;25.63;;;22.43;;
30850;SDS011;17567;48.382;9.102;2022-08-18T21:29:28;22.83;;;19.73;;
30850;SDS011;17567;48.382;9.102;2022-08-18T21:34:32;23.87;;;21.00;;
30850;SDS011;17567;48.382;9.102;2022-08-18T21:44:56;16.67;;;14.97;;
30850;SDS011;17567;48.382;9.102;2022-08-18T21:55:00;22.00;;;19.47;;
30850;SDS011;17567;48.382;9.102;2022-08-18T22:05:30;25.57;;;22.10;;
30850;SDS011;17567;48.382;9.102;2022-08-18T22:10:32;20.27;;;18.03;;
30850;SDS011;17567;48.382;9.102;2022-08-18T22:15:52;19.23;;;16.93;;
30850;SDS011;17567;48.382;9.102;2022-08-18T22:20:53;18.47;;;15.20;;
30850;SDS011;17567;48.382;9.102;2022-08-18T22:31:21;22.23;;;19.83;;
30850;SDS011;17567;48.382;9.102;2022-08-18T22:36:25;28.77;;;25.13;;
30850;SDS011;17567;48.382;9.102;2022-08-18T22:41:27;27.60;;;22.57;;
30850;SDS011;17567;48.382;9.102;2022-08-18T22:46:28;19.73;;;17.73;;
30850;SDS011;17567;48.382;9.102;2022-08-18T22:51:31;19.73;;;17.60;;
30850;SDS011;17567;48.382;9.102;2022-08-18T22:56:37;24.83;;;20.03;;
30850;SDS011;17567;48.382;9.102;2022-08-18T23:01:38;26.17;;;20.67;;
30850;SDS011;17567;48.382;9.102;2022-08-18T23:06:40;24.77;;;21.90;;
30850;SDS011;17567;48.382;9.102;2022-08-18T23:11:50;19.27;;;17.27;;
30850;SDS011;17567;48.382;9.102;2022-08-18T23:16:52;17.30;;;15.43;;
30850;SDS011;17567;48.382;9.102;2022-08-18T23:21:53;24.10;;;19.87;;
30850;SDS011;17567;48.382;9.102;2022-08-18T23:26:55;22.33;;;19.50;;
30850;SDS011;17567;48.382;9.102;2022-08-18T23:31:56;26.70;;;21.17;;
30850;SDS011;17567;48.382;9.102;2022-08-18T23:36:58;29.47;;;24.37;;
30850;SDS011;17567;48.382;9.102;2022-08-18T23:42:00;23.17;;;20.13;;
30850;SDS011;17567;48.382;9.102;2022-08-18T23:47:02;19.80;;;17.37;;
30850;SDS011;17567;48.382;9.102;2022-08-18T23:52:03;22.63;;;20.23;;
30850;SDS011;17567;48.382;9.102;2022-08-18T23:57:04;19.90;;;17.27;;
